Time;durP1;ratioP1;P1;durP2;ratioP2;P2;SDS_P1;SDS_P2;PMS_P1;PMS_P2;Temp;Humidity;BMP_temperature;BMP_pressure;BME280_temperature;BME280_humidity;BME280_pressure;Samples;Min_cycle;Max_cycle;Signal;HPM_P1;HPM_P2
2023/05/17 04:30:40;;;;;;;;;19.50;18.75;;;;;13.79;60.89;102189.19;5037280;28;45767;-79
2023/05/17 04:33:05;;;;;;;;;20.25;20.25;;;;;13.77;60.60;102188.41;5035627;28;45268;-79
2023/05/17 04:35:30;;;;;;;;;19.50;17.75;;;;;13.82;60.48;102205.28;5036423;28;45245;-79
2023/05/17 04:37:56;;;;;;;;;18.75;18.50;;;;;13.80;60.70;102199.03;5035991;28;45390;-79
2023/05/17 04:40:21;;;;;;;;;18.75;18.75;;;;;13.77;60.54;102200.06;5036235;28;45364;-79
2023/05/17 04:42:47;;;;;;;;;16.50;16.50;;;;;13.75;60.54;102204.63;5036041;28;45352;-79
2023/05/17 04:45:12;;;;;;;;;23.75;21.25;;;;;13.70;60.54;102198.50;5035644;28;45783;-80
2023/05/17 04:47:37;;;;;;;;;17.25;17.25;;;;;13.73;60.69;102211.00;5034827;28;45513;-79
2023/05/17 04:50:03;;;;;;;;;25.50;21.50;;;;;13.61;60.71;102191.63;5032007;28;48038;-80
2023/05/17 04:52:29;;;;;;;;;16.25;16.25;;;;;13.67;60.51;102217.50;5027713;28;45407;-81
2023/05/17 04:54:54;;;;;;;;;20.50;16.00;;;;;13.51;60.92;102190.19;5034847;28;45437;-79
2023/05/17 04:57:20;;;;;;;;;19.25;16.75;;;;;13.65;60.63;102219.34;5033947;28;45379;-79
2023/05/17 04:59:45;;;;;;;;;22.25;20.25;;;;;13.66;60.60;102213.03;5034585;28;46055;-80
2023/05/17 05:02:11;;;;;;;;;22.00;20.00;;;;;13.64;60.93;102214.88;5034424;28;47375;-80
2023/05/17 05:04:36;;;;;;;;;19.25;17.75;;;;;13.58;61.07;102204.34;5034452;28;45532;-80
2023/05/17 05:07:01;;;;;;;;;23.50;20.50;;;;;13.60;60.31;102205.16;5034687;28;45478;-80
2023/05/17 05:09:27;;;;;;;;;14.50;14.50;;;;;13.53;60.41;102198.19;5039245;28;45458;-77
2023/05/17 05:11:52;;;;;;;;;17.00;14.75;;;;;13.66;60.14;102222.94;5035048;28;45417;-78
2023/05/17 05:14:17;;;;;;;;;17.00;15.00;;;;;13.69;60.21;102228.22;5041873;28;45533;-76
2023/05/17 05:16:43;;;;;;;;;17.50;16.00;;;;;13.66;60.28;102231.00;5027662;28;45485;-73
2023/05/17 05:19:08;;;;;;;;;21.50;17.50;;;;;13.68;60.33;102234.53;5033983;28;46164;-73
2023/05/17 05:21:34;;;;;;;;;21.75;19.25;;;;;13.54;60.25;102206.25;5034664;28;45226;-82
2023/05/17 05:23:59;;;;;;;;;17.50;17.50;;;;;13.69;60.31;102230.91;5034985;28;45555;-78
2023/05/17 05:26:24;;;;;;;;;17.25;15.00;;;;;13.75;60.09;102246.84;5034186;28;45442;-74
2023/05/17 05:28:50;;;;;;;;;24.00;22.50;;;;;13.63;60.21;102227.47;5035038;28;45477;-78
2023/05/17 05:31:15;;;;;;;;;18.75;16.75;;;;;13.73;59.58;102246.91;5047402;28;45800;-75
2023/05/17 05:33:42;;;;;;;;;18.00;17.00;;;;;13.68;59.69;102232.72;5074203;28;45434;-75
2023/05/17 05:36:07;;;;;;;;;23.00;18.50;;;;;13.74;59.89;102232.50;5074586;28;45537;-76
2023/05/17 05:38:33;;;;;;;;;20.50;18.75;;;;;13.74;59.53;102240.59;5074313;28;46283;-73
2023/05/17 05:40:58;;;;;;;;;18.50;17.50;;;;;13.78;59.05;102258.41;5074785;28;45429;-71
2023/05/17 05:43:23;;;;;;;;;20.75;17.75;;;;;13.79;58.99;102254.78;5074644;28;45402;-74
2023/05/17 05:45:49;;;;;;;;;11.50;11.25;;;;;13.82;58.52;102265.47;5074652;28;45404;-80
2023/05/17 05:48:14;;;;;;;;;17.50;16.75;;;;;13.62;58.91;102225.72;5074127;28;45839;-82
2023/05/17 05:50:44;;;;;;;;;14.00;14.00;;;;;13.73;58.81;102238.81;5074668;28;45296;-83
2023/05/17 05:53:10;;;;;;;;;16.75;14.50;;;;;13.58;58.94;102216.00;5088315;27;45575;-81
2023/05/17 05:55:39;;;;;;;;;14.50;13.25;;;;;13.84;58.55;102274.38;5073845;28;45411;-79
2023/05/17 05:58:05;;;;;;;;;20.00;19.50;;;;;13.85;58.46;102277.97;5074182;28;46042;-78
2023/05/17 06:00:30;;;;;;;;;15.50;15.00;;;;;13.69;58.56;102260.56;5074194;28;45249;-78
2023/05/17 06:02:56;;;;;;;;;14.25;13.25;;;;;13.83;58.76;102278.00;5073841;28;45261;-76
2023/05/17 06:05:21;;;;;;;;;19.75;17.75;;;;;13.77;58.71;102271.97;5073944;28;45330;-77
2023/05/17 06:07:47;;;;;;;;;19.75;18.50;;;;;13.81;58.50;102274.47;5075250;28;46026;-77
2023/05/17 06:10:12;;;;;;;;;19.50;19.00;;;;;13.77;58.46;102270.16;5059278;28;50699;-77
2023/05/17 06:12:37;;;;;;;;;16.00;13.00;;;;;13.66;58.80;102241.78;5077589;28;45567;-79
2023/05/17 06:15:03;;;;;;;;;15.75;14.75;;;;;13.85;58.43;102284.22;5077538;28;45512;-78
2023/05/17 06:17:28;;;;;;;;;16.75;15.75;;;;;13.96;58.44;102298.19;5076841;28;46008;-79
2023/05/17 06:19:54;;;;;;;;;20.25;17.25;;;;;13.86;58.39;102282.41;5077536;28;45497;-79
2023/05/17 06:22:19;;;;;;;;;16.25;14.50;;;;;13.87;58.35;102276.94;5076282;28;45667;-79
2023/05/17 06:24:44;;;;;;;;;15.25;15.00;;;;;13.94;58.11;102283.91;5075708;28;45268;-79
2023/05/17 06:27:10;;;;;;;;;13.25;13.25;;;;;14.12;57.94;102313.84;5076626;28;47225;-78
2023/05/17 06:29:35;;;;;;;;;14.00;13.00;;;;;14.14;57.77;102307.44;5077026;28;45639;-79
2023/05/17 06:32:01;;;;;;;;;12.00;12.00;;;;;14.17;57.24;102312.75;5076810;28;45319;-79
2023/05/17 06:34:26;;;;;;;;;16.25;13.00;;;;;14.13;57.19;102297.59;5077256;28;45625;-77
2023/05/17 06:36:51;;;;;;;;;14.75;14.75;;;;;14.14;56.83;102299.34;5058754;28;48042;-78
2023/05/17 06:39:17;;;;;;;;;14.75;14.75;;;;;14.24;57.10;102310.69;5077211;28;45343;-78
2023/05/17 06:41:43;;;;;;;;;11.00;10.00;;;;;14.00;57.29;102259.41;5077155;28;45497;-78
2023/05/17 06:44:08;;;;;;;;;11.75;10.00;;;;;14.23;56.75;102300.84;5077335;28;45519;-79
2023/05/17 06:46:33;;;;;;;;;15.25;13.50;;;;;14.18;56.53;102289.34;5076268;28;46504;-80
2023/05/17 06:48:59;;;;;;;;;16.25;13.00;;;;;14.39;56.44;102318.25;5069121;28;45393;-78
2023/05/17 06:51:24;;;;;;;;;7.00;7.00;;;;;14.29;55.87;102300.66;5080649;27;45482;-78
2023/05/17 06:53:50;;;;;;;;;17.25;13.25;;;;;14.37;55.42;102310.19;5085249;27;45366;-76
2023/05/17 06:56:15;;;;;;;;;11.50;9.75;;;;;14.47;55.74;102318.84;5070152;28;46291;-80
2023/05/17 06:58:40;;;;;;;;;10.25;10.25;;;;;14.51;55.52;102320.53;5077034;28;45394;-80
2023/05/17 07:01:06;;;;;;;;;13.25;11.25;;;;;14.53;55.30;102317.78;5077280;28;45220;-79
2023/05/17 07:03:32;;;;;;;;;10.00;9.00;;;;;14.61;54.93;102321.06;5076732;28;45221;-80
2023/05/17 07:05:58;;;;;;;;;9.00;9.00;;;;;14.56;53.83;102310.44;5058421;28;46872;-82
2023/05/17 07:08:23;;;;;;;;;12.00;9.50;;;;;14.61;53.81;102311.16;5076802;28;45435;-77
2023/05/17 07:10:52;;;;;;;;;10.75;8.00;;;;;14.75;53.87;102330.41;5074485;28;45539;-76
2023/05/17 07:13:17;;;;;;;;;11.25;9.00;;;;;14.78;53.91;102329.41;5078526;28;45606;-83
2023/05/17 07:15:44;;;;;;;;;6.75;6.75;;;;;14.81;53.88;102333.78;5076424;28;45597;-80
2023/05/17 07:18:09;;;;;;;;;3.50;3.50;;;;;14.46;52.63;102271.22;5078349;28;45366;-81
2023/05/17 07:20:34;;;;;;;;;6.25;6.25;;;;;14.69;53.23;102309.03;5076890;28;45402;-83
2023/05/17 07:23:00;;;;;;;;;9.25;7.00;;;;;14.80;53.11;102332.06;5077488;28;45289;-80
2023/05/17 07:25:25;;;;;;;;;6.25;6.00;;;;;14.89;53.33;102337.06;5074824;28;46169;-79
2023/05/17 07:27:51;;;;;;;;;10.50;9.00;;;;;14.94;52.95;102345.91;5071178;28;45326;-81
2023/05/17 07:30:16;;;;;;;;;3.75;3.75;;;;;14.81;52.46;102323.88;5080627;28;45251;-78
2023/05/17 07:32:41;;;;;;;;;6.50;6.50;;;;;14.83;53.21;102332.81;5091711;28;44793;-79
2023/05/17 07:35:07;;;;;;;;;5.00;5.00;;;;;14.88;53.21;102351.53;5084006;28;46654;-80
2023/05/17 07:37:32;;;;;;;;;8.50;6.00;;;;;14.82;53.09;102328.34;5084487;28;45315;-81
2023/05/17 07:39:57;;;;;;;;;6.00;6.00;;;;;14.84;52.72;102334.56;5077079;28;45525;-82
2023/05/17 07:42:23;;;;;;;;;8.75;8.25;;;;;14.71;52.57;102317.97;5082541;28;45211;-84
2023/05/17 07:44:48;;;;;;;;;6.00;6.00;;;;;14.93;52.93;102347.72;5077562;28;46122;-82
2023/05/17 07:47:14;;;;;;;;;7.75;6.75;;;;;14.95;52.74;102339.56;5077437;28;45487;-81
2023/05/17 07:49:40;;;;;;;;;8.75;7.00;;;;;14.98;52.77;102339.41;5058476;28;45259;-82
2023/05/17 07:52:06;;;;;;;;;9.50;7.00;;;;;15.09;52.15;102343.47;5086437;27;45588;-79
2023/05/17 07:54:31;;;;;;;;;6.75;6.75;;;;;15.00;51.69;102324.03;5080131;27;46443;-80
2023/05/17 07:56:58;;;;;;;;;3.00;3.00;;;;;15.13;51.72;102350.53;5076754;28;45452;-81
2023/05/17 07:59:24;;;;;;;;;8.00;8.00;;;;;15.03;51.51;102334.75;5057778;28;45383;-81
2023/05/17 08:01:50;;;;;;;;;8.00;7.00;;;;;15.17;52.16;102345.00;5057765;28;46128;-81
2023/05/17 08:04:15;;;;;;;;;9.50;9.50;;;;;15.14;52.26;102344.16;5076452;28;45313;-78
2023/05/17 08:06:42;;;;;;;;;11.50;8.50;;;;;15.18;51.44;102335.94;5059734;28;45506;-80
2023/05/17 08:09:07;;;;;;;;;11.25;10.75;;;;;15.17;51.77;102329.66;5076148;28;45272;-82
2023/05/17 08:11:33;;;;;;;;;8.50;8.50;;;;;15.28;51.28;102359.84;5075851;28;45357;-82
2023/05/17 08:13:59;;;;;;;;;9.00;8.00;;;;;15.08;51.06;102316.50;5075248;28;45546;-81
2023/05/17 08:16:25;;;;;;;;;9.00;9.00;;;;;15.32;50.84;102353.34;5075786;28;45528;-80
2023/05/17 08:18:51;;;;;;;;;6.50;6.50;;;;;15.33;50.05;102352.41;5076036;28;45389;-79
2023/05/17 08:21:16;;;;;;;;;9.00;6.00;;;;;15.19;50.71;102319.69;5075873;28;45357;-80
2023/05/17 08:23:42;;;;;;;;;10.25;7.00;;;;;15.32;50.17;102353.34;5075821;28;46175;-79
2023/05/17 08:26:08;;;;;;;;;8.75;8.75;;;;;15.30;49.76;102354.38;5078519;28;45370;-80
2023/05/17 08:28:33;;;;;;;;;7.00;7.00;;;;;15.28;50.04;102353.56;5077621;28;45283;-81
2023/05/17 08:30:59;;;;;;;;;9.25;7.50;;;;;15.27;50.66;102351.78;5076636;28;45522;-81
2023/05/17 08:33:24;;;;;;;;;9.00;6.75;;;;;15.19;51.02;102333.19;5060665;28;47355;-80
2023/05/17 08:35:53;;;;;;;;;7.75;7.50;;;;;15.20;50.17;102331.38;5079166;28;45751;-80
2023/05/17 08:38:19;;;;;;;;;8.00;8.00;;;;;15.36;49.89;102348.72;5080074;28;45209;-81
2023/05/17 08:40:53;;;;;;;;;8.75;7.00;;;;;15.39;49.46;102354.91;5076360;28;45609;-80
2023/05/17 08:43:20;;;;;;;;;10.75;7.25;;;;;15.37;48.94;102351.38;5075259;28;45472;-80
2023/05/17 08:45:45;;;;;;;;;9.75;8.25;;;;;15.33;49.11;102338.91;5075408;28;45440;-81
2023/05/17 08:48:11;;;;;;;;;9.25;8.50;;;;;15.24;49.63;102314.97;5074797;28;45581;-80
2023/05/17 08:50:37;;;;;;;;;10.25;7.25;;;;;15.49;49.92;102352.69;5056424;28;45591;-80
2023/05/17 08:53:02;;;;;;;;;7.00;7.00;;;;;15.55;49.84;102349.78;5091440;27;45655;-83
2023/05/17 08:55:31;;;;;;;;;10.00;9.00;;;;;15.36;50.02;102300.97;5078542;28;45393;-86
2023/05/17 08:57:59;;;;;;;;;11.00;8.50;;;;;15.33;49.22;102284.88;5083359;28;45566;-83
2023/05/17 09:00:26;;;;;;;;;6.50;5.25;;;;;15.61;49.69;102318.91;5074751;28;45481;-83
2023/05/17 09:02:51;;;;;;;;;9.25;7.00;;;;;15.45;49.38;102287.06;5077050;28;45512;-83
2023/05/17 09:05:16;;;;;;;;;6.00;4.50;;;;;15.49;48.29;102291.38;5076346;28;45472;-81
2023/05/17 09:07:42;;;;;;;;;3.75;3.75;;;;;15.43;47.49;102294.34;5079913;28;45559;-80
2023/05/17 09:10:08;;;;;;;;;5.25;5.25;;;;;15.38;46.23;102285.56;5078219;28;45579;-83
2023/05/17 09:12:34;;;;;;;;;5.50;5.50;;;;;15.62;45.81;102324.25;5075997;28;45500;-83
2023/05/17 09:15:19;;;;;;;;;5.00;5.00;;;;;15.57;45.24;102307.31;5075921;28;45319;-83
2023/05/17 09:17:55;;;;;;;;;7.00;6.25;;;;;15.61;45.29;102324.31;5076169;28;45350;-81
2023/05/17 09:20:23;;;;;;;;;6.25;6.25;;;;;15.57;46.57;102320.84;5074658;28;45737;-82
2023/05/17 09:22:49;;;;;;;;;6.75;6.00;;;;;15.63;47.33;102328.72;5075030;28;45474;-77
2023/05/17 09:25:18;;;;;;;;;5.00;4.75;;;;;15.50;47.82;102286.88;5052424;28;45576;-81
2023/05/17 09:27:44;;;;;;;;;8.25;6.75;;;;;15.67;47.95;102321.34;5075027;28;45438;-80
2023/05/17 09:30:10;;;;;;;;;7.00;7.00;;;;;15.63;46.16;102311.59;5074771;28;45533;-80
2023/05/17 09:32:44;;;;;;;;;7.00;5.25;;;;;15.26;44.91;102252.75;5074614;28;45616;-80
2023/05/17 09:35:10;;;;;;;;;6.25;5.00;;;;;15.31;45.78;102269.69;5056547;28;46352;-81
2023/05/17 09:37:39;;;;;;;;;7.00;6.25;;;;;15.32;45.13;102256.09;5074082;28;45576;-79
2023/05/17 09:40:05;;;;;;;;;6.75;5.50;;;;;15.34;45.65;102259.59;5073934;28;45498;-79
2023/05/17 09:42:35;;;;;;;;;5.75;5.75;;;;;15.34;46.24;102259.59;5076111;28;45494;-81
2023/05/17 09:45:01;;;;;;;;;7.25;4.00;;;;;15.63;45.53;102298.97;5076799;28;45508;-81
2023/05/17 09:47:29;;;;;;;;;6.00;6.00;;;;;15.68;45.14;102298.75;5077671;28;45358;-81
2023/05/17 09:49:56;;;;;;;;;8.50;5.50;;;;;15.56;45.31;102266.88;5076559;28;45447;-78
2023/05/17 09:52:23;;;;;;;;;6.00;4.00;;;;;15.80;45.44;102309.97;5089079;27;46038;-78
2023/05/17 09:54:53;;;;;;;;;6.75;5.00;;;;;15.58;45.28;102265.81;5077315;27;45398;-79
2023/05/17 09:57:18;;;;;;;;;6.75;6.75;;;;;15.76;45.55;102292.09;5054554;28;45335;-82
2023/05/17 09:59:45;;;;;;;;;6.00;5.00;;;;;16.00;45.78;102325.31;5072215;28;45552;-81
2023/05/17 10:02:19;;;;;;;;;3.50;3.50;;;;;15.97;45.77;102303.81;5074174;28;45672;-76
2023/05/17 10:04:49;;;;;;;;;4.25;4.25;;;;;16.01;45.27;102302.72;5075620;28;45596;-84
2023/05/17 10:07:18;;;;;;;;;4.25;4.25;;;;;16.03;44.60;102295.44;5077766;28;45647;-79
2023/05/17 10:09:45;;;;;;;;;4.00;4.00;;;;;16.04;44.51;102297.19;5078172;28;45441;-78
2023/05/17 10:12:16;;;;;;;;;6.00;6.00;;;;;16.10;45.16;102305.03;5077326;28;45516;-82
2023/05/17 10:14:43;;;;;;;;;5.75;3.50;;;;;16.09;45.16;102292.44;5079448;28;45342;-82
2023/05/17 10:17:09;;;;;;;;;7.50;6.75;;;;;16.13;45.36;102288.66;5080891;28;45370;-76
2023/05/17 10:19:35;;;;;;;;;4.00;4.00;;;;;16.23;44.72;102291.84;5077336;28;45462;-84
2023/05/17 10:22:01;;;;;;;;;5.00;5.00;;;;;16.34;44.61;102296.75;5073877;28;45703;-81
2023/05/17 10:24:29;;;;;;;;;6.00;4.75;;;;;16.35;44.87;102299.38;5057741;28;45696;-81
2023/05/17 10:26:56;;;;;;;;;3.50;3.25;;;;;16.48;44.47;102311.44;5076452;28;45545;-82
2023/05/17 10:29:22;;;;;;;;;7.00;7.00;;;;;16.07;44.04;102234.84;5075287;28;45743;-79
2023/05/17 10:31:49;;;;;;;;;5.00;5.00;;;;;16.49;44.54;102296.06;5074867;28;46279;-76
2023/05/17 10:34:16;;;;;;;;;4.00;4.00;;;;;16.45;43.81;102284.50;5056457;28;45520;-74
2023/05/17 10:36:48;;;;;;;;;4.00;4.00;;;;;16.65;43.71;102305.28;5073579;28;45438;-74
2023/05/17 10:39:14;;;;;;;;;5.50;5.50;;;;;16.71;43.34;102298.69;5073739;28;45578;-76
2023/05/17 10:41:42;;;;;;;;;3.25;2.25;;;;;16.75;42.99;102290.38;5072124;28;46152;-76
2023/05/17 10:44:12;;;;;;;;;3.00;3.00;;;;;16.69;42.28;102268.97;5055896;28;46424;-76
2023/05/17 10:46:38;;;;;;;;;4.00;4.00;;;;;16.84;42.62;102289.06;5073595;28;45453;-75
2023/05/17 10:49:04;;;;;;;;;6.50;4.00;;;;;16.87;42.55;102284.34;5073745;28;45556;-72
2023/05/17 10:51:32;;;;;;;;;3.25;3.25;;;;;16.90;42.65;102273.38;5078205;27;46032;-74
2023/05/17 10:54:17;;;;;;;;;5.75;4.50;;;;;16.98;42.52;102276.59;5082266;27;45429;-77
2023/05/17 10:56:51;;;;;;;;;3.00;3.00;;;;;17.03;42.43;102270.94;5059316;28;45300;-75
2023/05/17 10:59:23;;;;;;;;;3.75;3.75;;;;;17.08;42.76;102258.06;5075711;28;45571;-77
2023/05/17 11:01:55;;;;;;;;;5.00;5.00;;;;;17.22;42.16;102276.34;5076067;28;46634;-77
2023/05/17 11:04:32;;;;;;;;;4.00;3.00;;;;;17.25;42.03;102260.81;5080602;28;45558;-81
2023/05/17 11:07:19;;;;;;;;;4.75;4.75;;;;;17.36;41.63;102268.41;5058876;28;45389;-77
2023/05/17 11:10:11;;;;;;;;;7.00;4.00;;;;;17.42;41.28;102259.09;5077893;28;45453;-76
2023/05/17 11:12:37;;;;;;;;;3.75;2.25;;;;;17.53;41.41;102273.84;5049480;28;46415;-79
2023/05/17 11:15:11;;;;;;;;;3.75;3.75;;;;;17.57;40.61;102258.31;5078454;28;45366;-78
2023/05/17 11:17:42;;;;;;;;;4.75;4.75;;;;;17.69;40.97;102268.59;5079862;28;45393;-81
2023/05/17 11:20:09;;;;;;;;;4.00;4.00;;;;;17.78;40.87;102263.53;5080354;28;45440;-81
2023/05/17 11:22:38;;;;;;;;;0.00;0.00;;;;;17.76;40.15;102246.47;5080771;28;46148;-81
2023/05/17 11:25:09;;;;;;;;;3.25;3.25;;;;;17.77;39.50;102222.94;5081819;28;45358;-79
2023/05/17 11:27:43;;;;;;;;;4.75;4.75;;;;;17.97;39.18;102244.47;5081631;28;45739;-78
2023/05/17 11:30:29;;;;;;;;;3.75;3.75;;;;;18.18;39.40;102266.88;5082846;28;45256;-80
2023/05/17 11:32:59;;;;;;;;;3.00;3.00;;;;;18.27;40.19;102255.53;5061346;28;47330;-81
2023/05/17 11:35:36;;;;;;;;;2.50;2.50;;;;;18.34;39.32;102250.63;5077209;28;45300;-79
2023/05/17 11:38:21;;;;;;;;;1.50;1.50;;;;;18.46;39.86;102247.22;5075951;28;45563;-79
2023/05/17 11:40:54;;;;;;;;;2.75;2.75;;;;;18.56;39.70;102243.06;5068318;28;45563;-80
2023/05/17 11:43:22;;;;;;;;;4.00;4.00;;;;;18.61;38.22;102222.00;5058373;28;48332;-79
2023/05/17 11:45:49;;;;;;;;;2.25;2.25;;;;;18.78;38.67;102229.19;5076151;28;45328;-78
2023/05/17 11:48:15;;;;;;;;;2.75;2.75;;;;;18.72;38.20;102199.63;5057920;28;45409;-80
2023/05/17 11:50:42;;;;;;;;;3.75;3.75;;;;;18.98;37.65;102220.75;5076003;28;45550;-79
2023/05/17 11:53:08;;;;;;;;;4.25;3.00;;;;;19.03;38.04;102221.41;5089767;27;46174;-78
2023/05/17 11:55:42;;;;;;;;;2.50;2.50;;;;;19.15;37.88;102211.63;5058018;28;45374;-78
2023/05/17 11:58:11;;;;;;;;;4.00;4.00;;;;;19.16;38.12;102199.78;5058833;28;45399;-79
2023/05/17 12:00:40;;;;;;;;;3.25;2.50;;;;;19.16;37.90;102203.38;5058095;28;45387;-81
2023/05/17 12:03:21;;;;;;;;;2.50;2.50;;;;;19.26;37.70;102218.19;5056605;28;48143;-80
2023/05/17 12:05:49;;;;;;;;;3.00;2.75;;;;;19.15;37.76;102192.59;5078600;28;45280;-78
2023/05/17 12:08:16;;;;;;;;;3.00;3.00;;;;;19.22;37.65;102200.31;5076279;28;45378;-83
2023/05/17 12:10:51;;;;;;;;;3.25;3.00;;;;;19.24;37.54;102202.94;5076423;28;45473;-81
2023/05/17 12:13:18;;;;;;;;;3.75;3.25;;;;;19.30;38.74;102204.44;5076379;28;46451;-76
2023/05/17 12:15:56;;;;;;;;;3.50;1.75;;;;;19.40;37.75;102200.19;5075317;28;45473;-75
2023/05/17 12:18:22;;;;;;;;;3.00;3.00;;;;;19.45;37.76;102208.97;5075302;28;45476;-73
2023/05/17 12:20:59;;;;;;;;;3.00;3.00;;;;;19.43;37.71;102205.44;5056810;28;46205;-76
2023/05/17 12:23:26;;;;;;;;;2.50;1.00;;;;;19.42;37.64;102203.69;5075071;28;46690;-76
2023/05/17 12:26:07;;;;;;;;;2.25;2.25;;;;;19.31;38.14;102193.44;5075548;28;45376;-77
2023/05/17 12:28:41;;;;;;;;;2.00;2.00;;;;;19.34;37.75;102203.28;5056574;28;45646;-77
2023/05/17 12:31:12;;;;;;;;;3.25;3.25;;;;;19.27;38.27;102200.94;5074950;28;45465;-77
2023/05/17 12:33:40;;;;;;;;;3.00;3.00;;;;;19.12;37.94;102171.94;5073151;28;45556;-77
2023/05/17 12:36:07;;;;;;;;;5.00;5.00;;;;;19.25;38.38;102196.53;5057201;28;45869;-79
2023/05/17 12:38:34;;;;;;;;;2.00;2.00;;;;;19.39;39.41;102199.34;5075513;28;45345;-77
2023/05/17 12:41:03;;;;;;;;;1.25;0.00;;;;;19.63;38.33;102176.13;5075682;28;45677;-78
2023/05/17 12:43:32;;;;;;;;;4.00;4.00;;;;;19.95;37.46;102186.84;5075281;28;46312;-77
2023/05/17 12:46:19;;;;;;;;;4.25;2.00;;;;;20.09;36.73;102194.16;5075093;28;45576;-78
2023/05/17 12:48:45;;;;;;;;;2.25;2.25;;;;;20.13;36.94;102168.50;5067688;28;45332;-75
2023/05/17 12:51:12;;;;;;;;;2.00;2.00;;;;;20.23;36.96;102167.81;5076738;27;45378;-76
2023/05/17 12:53:39;;;;;;;;;4.25;3.00;;;;;20.28;36.65;102176.56;5086052;27;45562;-75
2023/05/17 12:56:05;;;;;;;;;3.75;3.25;;;;;20.21;36.66;102186.09;5074846;28;45346;-77
2023/05/17 12:58:31;;;;;;;;;1.00;1.00;;;;;20.10;37.14;102194.06;5075390;28;45372;-74
2023/05/17 13:01:01;;;;;;;;;1.50;1.50;;;;;19.89;37.06;102176.34;5074506;28;45438;-75
2023/05/17 13:03:27;;;;;;;;;2.75;2.75;;;;;19.73;36.19;102183.72;5073042;28;45335;-77
2023/05/17 13:06:01;;;;;;;;;1.00;1.00;;;;;19.61;36.74;102188.94;5058386;28;45292;-76
2023/05/17 13:08:26;;;;;;;;;2.00;2.00;;;;;19.48;36.52;102190.63;5071933;28;45468;-75
2023/05/17 13:10:52;;;;;;;;;3.00;3.00;;;;;19.50;36.98;102180.53;5073480;28;45551;-75
2023/05/17 13:13:21;;;;;;;;;2.75;1.25;;;;;19.63;36.62;102178.84;5073457;28;45354;-76
2023/05/17 13:15:47;;;;;;;;;1.25;1.25;;;;;19.62;37.78;102185.25;5073528;28;45541;-76
2023/05/17 13:18:16;;;;;;;;;1.50;1.50;;;;;19.69;38.26;102198.47;5072514;28;45557;-75
2023/05/17 13:20:42;;;;;;;;;2.75;2.50;;;;;20.11;38.06;102184.03;5073154;28;45598;-73
2023/05/17 13:23:08;;;;;;;;;4.25;2.50;;;;;20.60;36.83;102176.34;5069749;28;45501;-77
2023/05/17 13:25:35;;;;;;;;;2.50;2.50;;;;;20.80;36.43;102185.97;5072946;28;45565;-75
2023/05/17 13:28:01;;;;;;;;;2.75;2.75;;;;;20.80;36.79;102177.78;5073114;28;45465;-76
2023/05/17 13:30:27;;;;;;;;;3.00;3.00;;;;;21.07;36.65;102178.69;5073608;28;45707;-77
2023/05/17 13:32:53;;;;;;;;;3.25;3.25;;;;;21.23;35.98;102175.81;5055224;28;48291;-77
2023/05/17 13:35:19;;;;;;;;;2.00;2.00;;;;;21.33;35.84;102180.56;5073894;28;45507;-76
2023/05/17 13:37:44;;;;;;;;;1.50;1.50;;;;;21.41;36.16;102166.38;5074348;28;45514;-76
2023/05/17 13:40:10;;;;;;;;;3.75;3.75;;;;;21.66;34.66;102180.06;5055705;28;46350;-77
2023/05/17 13:42:35;;;;;;;;;2.75;2.75;;;;;21.73;34.63;102165.00;5073411;28;45452;-76
2023/05/17 13:45:01;;;;;;;;;1.75;1.75;;;;;22.02;33.61;102160.25;5073469;28;45486;-74
2023/05/17 13:47:28;;;;;;;;;3.00;3.00;;;;;22.43;33.63;102156.38;5074666;28;45401;-76
2023/05/17 13:49:54;;;;;;;;;2.25;2.25;;;;;22.71;32.75;102147.03;5073862;28;46219;-76
2023/05/17 13:52:21;;;;;;;;;3.75;3.00;;;;;22.70;32.92;102148.00;5086154;27;46108;-77
2023/05/17 13:54:47;;;;;;;;;1.50;1.50;;;;;22.53;33.17;102152.88;5075401;27;45387;-76
2023/05/17 13:57:12;;;;;;;;;4.50;3.50;;;;;22.24;33.36;102162.31;5074586;28;45375;-76
2023/05/17 13:59:38;;;;;;;;;5.00;2.00;;;;;21.90;34.39;102156.50;5074438;28;45338;-75
2023/05/17 14:02:03;;;;;;;;;1.25;1.25;;;;;21.69;34.37;102159.88;5056441;28;47064;-75
2023/05/17 14:04:29;;;;;;;;;4.25;3.25;;;;;21.41;34.79;102156.34;5074105;28;45347;-78
2023/05/17 14:06:54;;;;;;;;;2.75;2.75;;;;;21.23;35.51;102160.31;5056337;28;45320;-76
2023/05/17 14:09:20;;;;;;;;;4.00;2.75;;;;;21.07;35.30;102160.47;5073975;28;45253;-72
2023/05/17 14:11:45;;;;;;;;;2.25;2.25;;;;;20.95;35.07;102146.75;5074758;28;46548;-74
2023/05/17 14:14:11;;;;;;;;;0.75;0.75;;;;;21.14;35.36;102145.44;5073717;28;45382;-74
2023/05/17 14:16:36;;;;;;;;;2.00;2.00;;;;;21.30;35.39;102142.56;5074086;28;45394;-76
2023/05/17 14:19:02;;;;;;;;;4.75;1.25;;;;;21.41;35.29;102150.00;5073798;28;45434;-76
2023/05/17 14:21:27;;;;;;;;;2.00;2.00;;;;;21.31;35.20;102127.94;5072200;28;46118;-76
2023/05/17 14:23:52;;;;;;;;;2.50;2.50;;;;;21.28;35.88;102130.88;5073299;28;45331;-75
2023/05/17 14:26:17;;;;;;;;;1.00;1.00;;;;;21.26;35.48;102143.75;5074165;28;45318;-75
2023/05/17 14:28:43;;;;;;;;;1.50;1.50;;;;;21.27;34.08;102142.75;5074977;28;45305;-75
2023/05/17 14:31:09;;;;;;;;;2.75;2.00;;;;;21.41;34.31;102131.78;5076854;28;46182;-75
2023/05/17 14:33:35;;;;;;;;;3.25;3.00;;;;;22.09;33.71;102142.44;5077157;28;45292;-70
2023/05/17 14:36:01;;;;;;;;;2.00;2.00;;;;;22.74;31.95;102142.22;5058728;28;45536;-72
2023/05/17 14:38:26;;;;;;;;;3.50;2.50;;;;;23.20;32.44;102130.53;5077113;28;45521;-72
2023/05/17 14:40:51;;;;;;;;;3.50;1.75;;;;;23.66;31.22;102125.09;5077013;28;46048;-76
2023/05/17 14:43:18;;;;;;;;;4.00;3.00;;;;;24.16;30.21;102134.72;5077004;28;45307;-76
2023/05/17 14:45:44;;;;;;;;;2.00;2.00;;;;;24.58;30.62;102124.03;5077336;28;45433;-72
2023/05/17 14:48:09;;;;;;;;;2.25;2.25;;;;;24.85;30.25;102122.56;5076408;28;45629;-72
2023/05/17 14:50:34;;;;;;;;;3.00;3.00;;;;;24.88;30.61;102111.34;5077124;28;46041;-73
2023/05/17 14:53:00;;;;;;;;;2.75;2.50;;;;;24.84;30.83;102104.38;5089338;27;45747;-74
2023/05/17 14:55:25;;;;;;;;;3.00;3.00;;;;;24.72;29.16;102113.66;5077082;28;45366;-75
2023/05/17 14:57:52;;;;;;;;;2.50;2.50;;;;;24.45;29.46;102111.31;5076515;28;45594;-76
2023/05/17 15:00:18;;;;;;;;;1.75;1.75;;;;;24.10;29.87;102113.31;5077002;28;46698;-71
2023/05/17 15:02:44;;;;;;;;;2.75;2.25;;;;;23.89;30.65;102113.19;5076341;28;45432;-74
2023/05/17 15:05:09;;;;;;;;;3.75;2.00;;;;;23.57;30.69;102104.78;5070551;28;45473;-76
2023/05/17 15:07:35;;;;;;;;;4.00;4.00;;;;;23.35;32.09;102104.69;5076381;28;45213;-72
2023/05/17 15:10:02;;;;;;;;;4.00;2.75;;;;;23.05;32.00;102098.88;5074588;28;45438;-72
2023/05/17 15:12:28;;;;;;;;;3.75;3.75;;;;;22.80;32.51;102106.19;5074239;28;45370;-75
2023/05/17 15:14:54;;;;;;;;;3.00;3.00;;;;;22.52;33.00;102103.78;5075497;28;45460;-75
2023/05/17 15:17:19;;;;;;;;;2.25;2.25;;;;;22.15;33.29;102105.59;5074927;28;45519;-73
2023/05/17 15:19:45;;;;;;;;;3.25;2.00;;;;;21.87;33.83;102104.84;5074835;28;45355;-72
2023/05/17 15:22:10;;;;;;;;;2.00;2.00;;;;;21.45;34.39;102081.47;5074931;28;45414;-74
2023/05/17 15:24:37;;;;;;;;;5.50;3.25;;;;;21.32;34.15;102099.69;5075514;28;45534;-78
2023/05/17 15:27:02;;;;;;;;;6.75;4.75;;;;;21.17;33.87;102105.28;5072781;28;46385;-74
2023/05/17 15:29:29;;;;;;;;;4.25;2.50;;;;;21.12;34.52;102106.47;5074955;28;46233;-75
2023/05/17 15:31:55;;;;;;;;;4.25;4.25;;;;;21.34;34.00;102105.03;5056947;28;45467;-73
2023/05/17 15:34:20;;;;;;;;;4.75;2.75;;;;;21.53;34.10;102092.72;5074800;28;45545;-74
2023/05/17 15:36:45;;;;;;;;;3.75;2.75;;;;;21.88;33.81;102087.47;5075254;28;45552;-77
2023/05/17 15:39:11;;;;;;;;;2.75;2.75;;;;;22.25;33.65;102102.09;5074971;28;53607;-74
2023/05/17 15:41:36;;;;;;;;;3.50;3.50;;;;;22.59;32.67;102080.47;5055446;28;45495;-73
2023/05/17 15:44:04;;;;;;;;;3.00;2.00;;;;;22.99;32.17;102079.19;5074910;28;45399;-77
2023/05/17 15:46:29;;;;;;;;;2.00;2.00;;;;;23.47;32.70;102103.75;5074466;28;45480;-74
2023/05/17 15:48:55;;;;;;;;;2.00;2.00;;;;;23.86;31.75;102090.63;5073908;28;46064;-77
2023/05/17 15:51:20;;;;;;;;;2.75;2.75;;;;;24.25;31.37;102092.03;5076167;27;45527;-76